createdAt,value
2024-03-14T00:01:07.703Z,10.47
2024-03-14T00:03:38.253Z,10.47
2024-03-14T00:06:06.574Z,10.47
2024-03-14T00:08:36.608Z,10.47
2024-03-14T00:11:06.673Z,10.48
2024-03-14T00:13:35.809Z,10.47
2024-03-14T00:16:04.746Z,10.47
2024-03-14T00:18:32.717Z,10.46
2024-03-14T00:21:02.343Z,10.47
2024-03-14T00:23:32.060Z,10.45
2024-03-14T00:25:59.838Z,10.44
2024-03-14T00:28:27.667Z,10.44
2024-03-14T00:30:55.272Z,10.44
2024-03-14T00:33:23.174Z,10.43
2024-03-14T00:35:51.307Z,10.41
2024-03-14T00:38:20.563Z,10.42
2024-03-14T00:40:48.822Z,10.41
2024-03-14T00:43:18.198Z,10.40
2024-03-14T00:45:46.090Z,10.39
2024-03-14T00:48:13.728Z,10.36
2024-03-14T00:50:42.512Z,10.33
2024-03-14T00:53:10.366Z,10.32
2024-03-14T00:55:38.209Z,10.30
2024-03-14T00:58:06.070Z,10.30
2024-03-14T01:00:33.937Z,10.31
2024-03-14T01:03:01.901Z,10.33
2024-03-14T01:05:29.717Z,10.34
2024-03-14T01:07:57.496Z,10.34
2024-03-14T01:10:25.340Z,10.34
2024-03-14T01:12:53.008Z,10.34
2024-03-14T01:15:23.611Z,10.35
2024-03-14T01:17:51.659Z,10.36
2024-03-14T01:20:19.589Z,10.35
2024-03-14T01:22:49.933Z,10.36
2024-03-14T01:25:17.750Z,10.36
2024-03-14T01:27:46.238Z,10.37
2024-03-14T01:30:14.366Z,10.38
2024-03-14T01:32:42.334Z,10.36
2024-03-14T01:35:10.023Z,10.38
2024-03-14T01:37:37.829Z,10.37
2024-03-14T01:40:07.409Z,10.35
2024-03-14T01:42:35.303Z,10.34
2024-03-14T01:45:05.861Z,10.32
2024-03-14T01:47:34.612Z,10.30
2024-03-14T01:50:06.922Z,10.28
2024-03-14T01:52:35.887Z,10.30
2024-03-14T01:55:04.697Z,10.30
2024-03-14T01:57:32.796Z,10.30
2024-03-14T02:00:01.308Z,10.29
2024-03-14T02:02:29.341Z,10.29
2024-03-14T02:04:57.375Z,10.28
2024-03-14T02:07:25.296Z,10.27
2024-03-14T02:09:53.150Z,10.26
2024-03-14T02:12:22.683Z,10.23
2024-03-14T02:14:51.043Z,10.20
2024-03-14T02:17:18.859Z,10.18
2024-03-14T02:19:46.812Z,10.16
2024-03-14T02:22:20.043Z,10.14
2024-03-14T02:24:47.915Z,10.14
2024-03-14T02:27:16.540Z,10.16
2024-03-14T02:29:44.401Z,10.16
2024-03-14T02:32:12.235Z,10.15
2024-03-14T02:34:40.021Z,10.16
2024-03-14T02:37:08.405Z,10.16
2024-03-14T02:39:36.163Z,10.14
2024-03-14T02:42:04.037Z,10.14
2024-03-14T02:44:31.618Z,10.13
2024-03-14T02:46:59.353Z,10.11
2024-03-14T02:49:28.472Z,10.11
2024-03-14T02:51:56.481Z,10.10
2024-03-14T02:54:24.296Z,10.10
2024-03-14T02:56:52.109Z,10.10
2024-03-14T02:59:20.355Z,10.09
2024-03-14T03:01:48.246Z,10.09
2024-03-14T03:04:16.086Z,10.07
2024-03-14T03:06:49.583Z,10.05
2024-03-14T03:09:17.487Z,10.06
2024-03-14T03:11:45.261Z,10.06
2024-03-14T03:14:13.011Z,10.07
2024-03-14T03:16:41.781Z,10.08
2024-03-14T03:19:10.744Z,10.11
2024-03-14T03:21:39.464Z,10.14
2024-03-14T03:24:08.851Z,10.16
2024-03-14T03:26:37.927Z,10.19
2024-03-14T03:29:07.305Z,10.21
2024-03-14T03:31:35.765Z,10.21
2024-03-14T03:34:03.938Z,10.21
2024-03-14T03:36:31.932Z,10.21
2024-03-14T03:39:14.183Z,10.20
2024-03-14T03:41:42.309Z,10.20
2024-03-14T03:44:10.895Z,10.20
2024-03-14T03:46:45.440Z,10.20
2024-03-14T03:49:13.694Z,10.20
2024-03-14T03:51:41.526Z,10.20
2024-03-14T03:54:09.562Z,10.19
2024-03-14T03:56:37.567Z,10.19
2024-03-14T03:59:09.257Z,10.21
2024-03-14T04:01:37.265Z,10.22
2024-03-14T04:04:05.912Z,10.21
2024-03-14T04:06:34.883Z,10.23
2024-03-14T04:09:03.364Z,10.24
2024-03-14T04:11:31.360Z,10.24
2024-03-14T04:13:59.193Z,10.24
2024-03-14T04:16:30.142Z,10.24
2024-03-14T04:18:58.131Z,10.25
2024-03-14T04:21:25.978Z,10.25
2024-03-14T04:23:53.621Z,10.25
2024-03-14T04:26:21.270Z,10.20
2024-03-14T04:28:50.580Z,10.23
2024-03-14T04:31:19.052Z,10.24
2024-03-14T04:33:46.952Z,10.23
2024-03-14T04:36:17.299Z,10.24
2024-03-14T04:38:48.653Z,10.24
2024-03-14T04:41:17.339Z,10.23
2024-03-14T04:43:45.530Z,10.23
2024-03-14T04:46:13.366Z,10.23
2024-03-14T04:48:42.906Z,10.24
2024-03-14T04:51:13.792Z,10.25
2024-03-14T04:53:42.069Z,10.26
2024-03-14T04:56:09.815Z,10.27
2024-03-14T04:58:38.905Z,10.27
2024-03-14T05:01:06.972Z,10.28
2024-03-14T05:03:35.611Z,10.24
2024-03-14T05:06:04.697Z,10.28
2024-03-14T05:08:32.622Z,10.29
2024-03-14T05:11:00.519Z,10.29
2024-03-14T05:13:29.390Z,10.29
2024-03-14T05:15:58.693Z,10.29
2024-03-14T05:18:28.991Z,10.29
2024-03-14T05:20:56.981Z,10.28
2024-03-14T05:23:24.832Z,10.27
2024-03-14T05:25:53.624Z,10.26
2024-03-14T05:28:21.389Z,10.22
2024-03-14T05:30:49.129Z,10.19
2024-03-14T05:33:16.931Z,10.15
2024-03-14T05:35:44.577Z,10.12
2024-03-14T05:38:13.427Z,10.09
2024-03-14T05:40:41.176Z,10.06
2024-03-14T05:43:09.474Z,10.05
2024-03-14T05:45:37.491Z,10.03
2024-03-14T05:48:10.932Z,10.03
2024-03-14T05:50:38.922Z,10.03
2024-03-14T05:53:07.120Z,10.03
2024-03-14T05:55:34.943Z,10.01
2024-03-14T05:58:02.741Z,10.01
2024-03-14T06:00:30.771Z,10.00
2024-03-14T06:02:58.853Z,10.03
2024-03-14T06:05:29.183Z,10.04
2024-03-14T06:07:57.125Z,10.06
2024-03-14T06:10:24.928Z,10.10
2024-03-14T06:12:52.709Z,10.13
2024-03-14T06:15:20.527Z,10.16
2024-03-14T06:17:52.443Z,10.20
2024-03-14T06:20:20.856Z,10.24
2024-03-14T06:22:49.345Z,10.30
2024-03-14T06:25:17.285Z,10.39
2024-03-14T06:27:46.081Z,10.51
2024-03-14T06:30:16.483Z,10.63
2024-03-14T06:32:48.018Z,10.75
2024-03-14T06:35:19.271Z,10.90
2024-03-14T06:40:16.594Z,11.21
2024-03-14T06:42:46.421Z,11.36
2024-03-14T06:45:14.836Z,11.49
2024-03-14T06:47:44.980Z,11.60
2024-03-14T06:50:13.789Z,11.68
2024-03-14T06:52:42.045Z,11.74
2024-03-14T06:55:11.382Z,11.78
2024-03-14T06:57:41.286Z,11.82
2024-03-14T07:00:14.975Z,11.84
2024-03-14T07:02:45.145Z,11.86
2024-03-14T07:05:16.437Z,11.86
2024-03-14T07:07:45.898Z,11.85
2024-03-14T07:10:15.510Z,11.84
2024-03-14T07:12:43.829Z,11.81
2024-03-14T07:15:11.437Z,11.78
2024-03-14T07:17:40.343Z,11.74
2024-03-14T07:20:17.317Z,11.69
2024-03-14T07:22:47.438Z,11.67
2024-03-14T07:25:19.317Z,11.65
2024-03-14T07:27:47.631Z,11.63
2024-03-14T07:30:16.277Z,11.63
2024-03-14T07:32:44.431Z,11.64
2024-03-14T07:35:15.758Z,11.67
2024-03-14T07:37:46.160Z,11.70
2024-03-14T07:40:14.325Z,11.73
2024-03-14T07:42:42.202Z,11.77
2024-03-14T07:45:10.262Z,11.85
2024-03-14T07:47:38.233Z,11.93
2024-03-14T07:50:07.154Z,12.06
2024-03-14T07:52:35.051Z,12.24
2024-03-14T07:55:07.652Z,12.40
2024-03-14T07:57:37.608Z,12.53
2024-03-14T08:00:09.650Z,12.64
2024-03-14T08:02:42.485Z,12.72
2024-03-14T08:05:10.301Z,12.80
2024-03-14T08:07:38.790Z,12.89
2024-03-14T08:10:09.372Z,12.99
2024-03-14T08:12:38.308Z,13.11
2024-03-14T08:15:17.741Z,13.27
2024-03-14T08:17:46.554Z,13.45
2024-03-14T08:20:17.137Z,13.55
2024-03-14T08:22:45.129Z,13.63
2024-03-14T08:25:17.881Z,13.70
2024-03-14T08:27:47.512Z,13.74
2024-03-14T08:30:15.358Z,13.80
2024-03-14T08:32:44.484Z,13.86
2024-03-14T08:35:14.930Z,13.94
2024-03-14T08:37:44.869Z,14.04
2024-03-14T08:40:13.487Z,14.18
2024-03-14T08:42:48.415Z,14.32
2024-03-14T08:45:17.278Z,14.44
2024-03-14T08:47:45.441Z,14.53
2024-03-14T08:50:16.208Z,14.56
2024-03-14T08:52:44.265Z,14.61
2024-03-14T08:55:25.425Z,14.65
2024-03-14T08:57:53.454Z,14.70
2024-03-14T09:00:23.498Z,14.76
2024-03-14T09:02:51.689Z,14.81
2024-03-14T09:05:19.803Z,14.88
2024-03-14T09:07:47.811Z,14.98
2024-03-14T09:10:20.708Z,15.12
2024-03-14T09:12:49.751Z,15.28
2024-03-14T09:15:19.945Z,15.45
2024-03-14T09:17:48.036Z,15.65
2024-03-14T09:20:17.548Z,15.85
2024-03-14T09:22:46.093Z,16.07
2024-03-14T09:25:15.422Z,16.30
2024-03-14T09:27:44.442Z,16.50
2024-03-14T09:30:13.094Z,16.63
2024-03-14T09:32:41.729Z,16.74
2024-03-14T09:35:12.795Z,16.85
2024-03-14T09:37:40.662Z,16.94
2024-03-14T09:40:08.680Z,17.00
2024-03-14T09:42:37.888Z,16.99
2024-03-14T09:45:06.446Z,16.99
2024-03-14T09:47:34.982Z,17.04
2024-03-14T09:50:02.978Z,17.16
2024-03-14T09:52:30.866Z,17.30
2024-03-14T09:54:58.757Z,17.37
2024-03-14T09:57:26.604Z,17.43
2024-03-14T09:59:57.033Z,17.46
2024-03-14T10:02:24.912Z,17.45
2024-03-14T10:04:52.726Z,17.46
2024-03-14T10:07:20.545Z,17.51
2024-03-14T10:09:52.298Z,17.51
2024-03-14T10:12:22.848Z,17.54
2024-03-14T10:15:01.922Z,17.49
2024-03-14T10:17:33.151Z,17.37
2024-03-14T10:20:01.680Z,17.29
2024-03-14T10:22:29.844Z,17.15
2024-03-14T10:24:57.653Z,17.09
2024-03-14T10:27:25.536Z,17.11
2024-03-14T10:29:55.771Z,17.18
2024-03-14T10:32:25.135Z,17.24
2024-03-14T10:34:56.156Z,17.28
2024-03-14T10:37:24.070Z,17.27
2024-03-14T10:39:52.678Z,17.26
2024-03-14T10:42:20.512Z,17.35
2024-03-14T10:44:49.126Z,17.43
2024-03-14T10:47:17.150Z,17.54
2024-03-14T10:49:47.237Z,17.64
2024-03-14T10:52:15.409Z,17.66
2024-03-14T10:54:43.685Z,17.60
2024-03-14T10:57:11.694Z,17.48
2024-03-14T10:59:39.596Z,17.45
2024-03-14T11:02:07.417Z,17.62
2024-03-14T11:04:35.250Z,17.84
2024-03-14T11:07:07.735Z,18.02
2024-03-14T11:09:35.704Z,18.17
2024-03-14T11:12:05.018Z,18.25
2024-03-14T11:14:33.376Z,18.24
2024-03-14T11:17:02.257Z,18.22
2024-03-14T11:19:30.298Z,18.21
2024-03-14T11:21:59.197Z,18.34
2024-03-14T11:24:30.593Z,18.48
2024-03-14T11:26:59.785Z,18.57
2024-03-14T11:29:28.400Z,18.69
2024-03-14T11:32:11.576Z,18.81
2024-03-14T11:34:39.576Z,19.00
2024-03-14T11:37:08.621Z,19.04
2024-03-14T11:39:38.428Z,19.04
2024-03-14T11:42:12.089Z,19.07
2024-03-14T11:44:40.951Z,19.11
2024-03-14T11:47:15.014Z,19.16
2024-03-14T11:49:44.449Z,19.13
2024-03-14T11:52:12.656Z,19.04
2024-03-14T11:54:41.471Z,18.97
2024-03-14T11:57:10.202Z,18.92
2024-03-14T11:59:40.881Z,18.91
2024-03-14T12:02:17.519Z,18.90
2024-03-14T12:04:49.735Z,18.90
2024-03-14T12:07:17.706Z,18.94
2024-03-14T12:09:45.471Z,18.94
2024-03-14T12:12:13.666Z,18.89
2024-03-14T12:14:41.551Z,18.97
2024-03-14T12:17:17.793Z,19.13
2024-03-14T12:19:45.701Z,19.21
2024-03-14T12:22:15.148Z,19.29
2024-03-14T12:24:44.235Z,19.35
2024-03-14T12:27:12.567Z,19.40
2024-03-14T12:29:40.438Z,19.46
2024-03-14T12:32:10.137Z,19.46
2024-03-14T12:34:37.944Z,19.48
2024-03-14T12:37:05.690Z,19.52
2024-03-14T12:39:33.631Z,19.50
2024-03-14T12:42:01.508Z,19.41
2024-03-14T12:44:29.692Z,19.21
2024-03-14T12:46:58.075Z,19.04
2024-03-14T12:49:25.866Z,18.96
2024-03-14T12:51:59.193Z,18.94
2024-03-14T12:54:35.711Z,18.95
2024-03-14T12:57:05.475Z,18.96
2024-03-14T12:59:37.296Z,18.90
2024-03-14T13:02:07.443Z,18.90
2024-03-14T13:04:40.160Z,18.99
2024-03-14T13:07:12.226Z,19.01
2024-03-14T13:09:40.002Z,18.97
2024-03-14T13:12:18.697Z,18.91
2024-03-14T13:15:00.914Z,18.83
2024-03-14T13:17:29.085Z,18.72
2024-03-14T13:19:57.990Z,18.59
2024-03-14T13:22:25.902Z,18.56
2024-03-14T13:24:55.991Z,18.61
2024-03-14T13:27:25.176Z,18.56
2024-03-14T13:29:52.992Z,18.47
2024-03-14T13:32:22.759Z,18.54
2024-03-14T13:34:51.006Z,18.71
2024-03-14T13:37:19.299Z,18.85
2024-03-14T13:39:47.229Z,18.85
2024-03-14T13:42:17.781Z,18.78
2024-03-14T13:44:49.352Z,18.80
2024-03-14T13:47:22.230Z,18.87
2024-03-14T13:50:00.078Z,18.90
2024-03-14T13:52:29.276Z,18.94
2024-03-14T13:54:58.753Z,19.02
2024-03-14T13:57:26.850Z,19.04
2024-03-14T14:00:02.210Z,18.94
2024-03-14T14:02:31.224Z,18.87
2024-03-14T14:05:01.255Z,18.86
2024-03-14T14:07:29.262Z,18.82
2024-03-14T14:09:57.173Z,18.74
2024-03-14T14:12:26.729Z,18.75
2024-03-14T14:14:54.546Z,18.78
2024-03-14T14:17:23.438Z,18.79
2024-03-14T14:19:51.202Z,18.70
2024-03-14T14:22:21.547Z,18.60
2024-03-14T14:24:49.506Z,18.52
2024-03-14T14:27:17.274Z,18.48
2024-03-14T14:29:45.931Z,18.48
2024-03-14T14:32:13.672Z,18.52
2024-03-14T14:34:41.576Z,18.53
2024-03-14T14:37:09.363Z,18.51
2024-03-14T14:39:38.870Z,18.49
2024-03-14T14:42:07.077Z,18.46
2024-03-14T14:44:35.367Z,18.42
2024-03-14T14:47:05.622Z,18.40
2024-03-14T14:49:33.432Z,18.37
2024-03-14T14:52:01.311Z,18.35
2024-03-14T14:54:29.413Z,18.34
2024-03-14T14:56:57.199Z,18.33
2024-03-14T14:59:25.344Z,18.35
2024-03-14T15:01:54.423Z,18.40
2024-03-14T15:04:22.365Z,18.44
2024-03-14T15:06:50.563Z,18.46
2024-03-14T15:09:18.715Z,18.47
2024-03-14T15:11:47.630Z,18.46
2024-03-14T15:14:15.539Z,18.46
2024-03-14T15:16:44.024Z,18.43
2024-03-14T15:19:12.213Z,18.36
2024-03-14T15:21:41.204Z,18.32
2024-03-14T15:24:12.521Z,18.27
2024-03-14T15:26:40.455Z,18.23
2024-03-14T15:29:08.258Z,18.22
2024-03-14T15:31:36.088Z,18.17
2024-03-14T15:34:04.069Z,18.10
2024-03-14T15:36:32.047Z,18.03
2024-03-14T15:39:00.026Z,17.92
2024-03-14T15:41:28.534Z,17.79
2024-03-14T15:43:56.381Z,17.71
2024-03-14T15:46:24.201Z,17.64
2024-03-14T15:48:52.221Z,17.56
2024-03-14T15:51:21.086Z,17.53
2024-03-14T15:53:50.957Z,17.46
2024-03-14T15:56:19.884Z,17.39
2024-03-14T15:58:48.592Z,17.34
2024-03-14T16:01:16.903Z,17.22
2024-03-14T16:03:45.080Z,17.09
2024-03-14T16:06:13.285Z,17.00
2024-03-14T16:08:49.109Z,16.91
2024-03-14T16:11:24.206Z,16.83
2024-03-14T16:13:54.368Z,16.74
2024-03-14T16:16:23.539Z,16.67
2024-03-14T16:18:52.617Z,16.63
2024-03-14T16:21:20.742Z,16.61
2024-03-14T16:23:49.243Z,16.55
2024-03-14T16:26:19.756Z,16.53
2024-03-14T16:28:48.552Z,16.48
2024-03-14T16:31:16.832Z,16.43
2024-03-14T16:33:49.391Z,16.38
2024-03-14T16:36:18.062Z,16.32
2024-03-14T16:38:47.786Z,16.24
2024-03-14T16:41:15.606Z,16.14
2024-03-14T16:43:43.195Z,16.04
2024-03-14T16:46:12.708Z,15.90
2024-03-14T16:48:42.429Z,15.83
2024-03-14T16:51:10.850Z,15.76
2024-03-14T16:53:42.033Z,15.67
2024-03-14T16:56:12.763Z,15.57
2024-03-14T16:58:40.778Z,15.45
2024-03-14T17:01:08.668Z,15.33
2024-03-14T17:03:36.713Z,15.23
2024-03-14T17:06:05.036Z,15.11
2024-03-14T17:08:33.137Z,15.01
2024-03-14T17:12:27.997Z,14.94
2024-03-14T17:14:57.921Z,14.82
2024-03-14T17:17:27.904Z,14.71
2024-03-14T17:19:57.917Z,14.60
2024-03-14T17:22:27.886Z,14.49
2024-03-14T17:24:57.903Z,14.37
2024-03-14T17:27:29.259Z,14.25
2024-03-14T17:29:59.239Z,14.12
2024-03-14T17:32:29.282Z,14.00
2024-03-14T17:34:59.204Z,13.88
2024-03-14T17:37:29.303Z,13.77
2024-03-14T17:39:59.792Z,13.68
2024-03-14T17:42:30.026Z,13.61
2024-03-14T17:44:59.970Z,13.53
2024-03-14T17:47:30.190Z,13.45
2024-03-14T17:50:00.475Z,13.38
2024-03-14T17:52:30.448Z,13.32
2024-03-14T17:55:03.999Z,13.26
2024-03-14T17:57:34.794Z,13.19
2024-03-14T18:00:09.527Z,13.11
2024-03-14T18:02:39.600Z,13.05
2024-03-14T18:05:11.192Z,13.00
2024-03-14T18:07:44.747Z,12.94
2024-03-14T18:10:15.687Z,12.87
2024-03-14T18:12:47.553Z,12.82
2024-03-14T18:15:19.802Z,12.78
2024-03-14T18:17:51.821Z,12.74
2024-03-14T18:20:22.780Z,12.70
2024-03-14T18:22:52.825Z,12.66
2024-03-14T18:25:23.210Z,12.62
2024-03-14T18:27:53.348Z,12.59
2024-03-14T18:30:23.646Z,12.56
2024-03-14T18:32:54.365Z,12.52
2024-03-14T18:35:24.838Z,12.49
2024-03-14T18:37:55.354Z,12.45
2024-03-14T18:40:28.170Z,12.41
2024-03-14T18:43:01.797Z,12.36
2024-03-14T18:45:33.882Z,12.33
2024-03-14T18:48:05.418Z,12.28
2024-03-14T18:50:35.501Z,12.24
2024-03-14T18:53:13.935Z,12.22
2024-03-14T18:55:47.591Z,12.17
2024-03-14T18:58:18.261Z,12.12
2024-03-14T19:00:48.247Z,12.08
2024-03-14T19:03:19.392Z,12.04
2024-03-14T19:05:50.420Z,12.02
2024-03-14T19:08:21.758Z,11.98
2024-03-14T19:10:54.669Z,11.95
2024-03-14T19:13:26.770Z,11.89
2024-03-14T19:15:57.954Z,11.86
2024-03-14T19:18:29.706Z,11.85
2024-03-14T19:21:00.057Z,11.81
2024-03-14T19:23:30.767Z,11.79
2024-03-14T19:26:02.863Z,11.77
2024-03-14T19:28:35.397Z,11.74
2024-03-14T19:31:07.591Z,11.72
2024-03-14T19:33:37.748Z,11.72
2024-03-14T19:36:08.342Z,11.70
2024-03-14T19:38:38.492Z,11.67
2024-03-14T19:41:08.414Z,11.66
2024-03-14T19:43:40.753Z,11.65
2024-03-14T19:46:10.712Z,11.63
2024-03-14T19:48:43.657Z,11.63
2024-03-14T19:51:15.652Z,11.61
2024-03-14T19:53:46.272Z,11.60
2024-03-14T19:56:16.346Z,11.59
2024-03-14T19:58:47.070Z,11.58
2024-03-14T20:01:17.104Z,11.58
2024-03-14T20:03:47.623Z,11.58
2024-03-14T20:06:20.754Z,11.58
2024-03-14T20:08:50.816Z,11.58
2024-03-14T20:11:20.783Z,11.59
2024-03-14T20:13:50.743Z,11.58
2024-03-14T20:16:21.301Z,11.56
2024-03-14T20:18:51.463Z,11.55
2024-03-14T20:21:21.869Z,11.57
2024-03-14T20:23:52.406Z,11.55
2024-03-14T20:26:22.404Z,11.53
2024-03-14T20:28:52.528Z,11.51
2024-03-14T20:31:22.505Z,11.49
2024-03-14T20:33:53.096Z,11.46
2024-03-14T20:36:23.678Z,11.43
2024-03-14T20:39:05.988Z,11.40
2024-03-14T20:41:36.769Z,11.36
2024-03-14T20:44:09.009Z,11.34
2024-03-14T20:46:39.089Z,11.32
2024-03-14T20:49:09.767Z,11.30
2024-03-14T20:51:40.846Z,11.29
2024-03-14T20:54:11.844Z,11.29
2024-03-14T20:56:48.335Z,11.29
2024-03-14T20:59:20.383Z,11.29
2024-03-14T21:01:50.345Z,11.29
2024-03-14T21:04:20.360Z,11.31
2024-03-14T21:06:50.274Z,11.32
2024-03-14T21:09:25.739Z,11.33
2024-03-14T21:11:55.973Z,11.31
2024-03-14T21:14:26.136Z,11.31
2024-03-14T21:16:56.062Z,11.30
2024-03-14T21:19:26.049Z,11.29
2024-03-14T21:21:55.936Z,11.27
2024-03-14T21:24:27.594Z,11.27
2024-03-14T21:26:57.768Z,11.24
2024-03-14T21:29:27.712Z,11.22
2024-03-14T21:31:58.105Z,11.18
2024-03-14T21:34:29.125Z,11.13
2024-03-14T21:36:59.025Z,11.08
2024-03-14T21:39:31.718Z,11.03
2024-03-14T21:42:01.693Z,10.98
2024-03-14T21:44:34.276Z,10.92
2024-03-14T21:47:04.284Z,10.88
2024-03-14T21:49:34.188Z,10.84
2024-03-14T21:52:05.306Z,10.79
2024-03-14T21:54:35.716Z,10.76
2024-03-14T21:57:06.745Z,10.73
2024-03-14T21:59:39.031Z,10.69
2024-03-14T22:02:09.619Z,10.63
2024-03-14T22:04:40.100Z,10.59
2024-03-14T22:07:10.047Z,10.54
2024-03-14T22:09:40.198Z,10.51
2024-03-14T22:12:10.735Z,10.49
2024-03-14T22:14:40.648Z,10.46
2024-03-14T22:17:11.096Z,10.44
2024-03-14T22:19:41.245Z,10.43
2024-03-14T22:22:11.274Z,10.38
2024-03-14T22:24:41.520Z,10.40
2024-03-14T22:27:12.418Z,10.39
2024-03-14T22:29:42.706Z,10.39
2024-03-14T22:32:12.644Z,10.38
2024-03-14T22:34:42.830Z,10.40
2024-03-14T22:37:12.883Z,10.40
2024-03-14T22:39:45.791Z,10.40
2024-03-14T22:42:15.914Z,10.38
2024-03-14T22:44:47.753Z,10.37
2024-03-14T22:47:18.351Z,10.34
2024-03-14T22:49:48.380Z,10.33
2024-03-14T22:52:18.779Z,10.31
2024-03-14T22:54:48.946Z,10.28
2024-03-14T22:57:19.048Z,10.25
2024-03-14T22:59:49.386Z,10.23
2024-03-14T23:02:21.887Z,10.22
2024-03-14T23:04:54.454Z,10.20
2024-03-14T23:07:28.039Z,10.18
2024-03-14T23:09:59.321Z,10.16
2024-03-14T23:12:32.379Z,10.15
2024-03-14T23:15:03.039Z,10.13
2024-03-14T23:17:33.573Z,10.12
2024-03-14T23:20:05.360Z,10.10
2024-03-14T23:22:35.286Z,10.09
2024-03-14T23:25:09.127Z,10.06
2024-03-14T23:27:39.310Z,10.03
2024-03-14T23:30:11.745Z,10.01
2024-03-14T23:32:42.818Z,9.99
2024-03-14T23:35:13.582Z,9.99
2024-03-14T23:37:43.700Z,9.98
2024-03-14T23:40:14.779Z,9.96
2024-03-14T23:42:45.429Z,9.93
2024-03-14T23:45:18.957Z,9.93
2024-03-14T23:47:50.319Z,9.91
2024-03-14T23:50:23.414Z,9.90
2024-03-14T23:52:53.386Z,9.88
2024-03-14T23:55:23.724Z,9.85
2024-03-14T23:57:56.856Z,9.82
